POGODA: Poland

Lotnisko: Katowice-Pyrzowice

METAR KOD: EPKT


METAR: EPKT 260900Z 20004KT 140V240 6000 BKN019 06/03 Q1029


BLOK
Pogoda METAR
260900Z
Dzien: 26, Godzina: 09:00 UTC.
20004KT
Wiatr z kierunku 200, o predkosci 7 km/h
140V240
Wiatr zmienny pomiedzy 140 i 240
6000
Widzialnosc pozioma 6000 m.
BKN019
5/8 - 7/8 pokrycia nieba, chmurami o podstawie: 570 metrow
06/03
Temperatura: powietrze 6°C, punkt rosy 3°C . Wilgotnosc wzgledna 50 %
Q1029
Cisnienie: 1029 hPa

Pogoda na innym lotnisku

Pogoda Gdansk-Rebiechowo WEATHER Poland  
Pogoda Katowice WEATHER Poland  
Pogoda Krakow WEATHER Poland  
Pogoda Poznan WEATHER Poland  
Pogoda Rzeszow-Jasionka WEATHER Poland  
Pogoda Szczecin WEATHER Poland  
Pogoda Warszawa-Okecie WEATHER Poland  
Pogoda Wroclaw Ii WEATHER Poland  

Pogoda w inny kraju

Strona startowa

(C) by GREGOR 2007
Ogłoszenia Towarzyskie